Time;durP1;ratioP1;P1;durP2;ratioP2;P2;SDS_P1;SDS_P2;PMS_P1;PMS_P2;Temp;Humidity;BMP_temperature;BMP_pressure;BME280_temperature;BME280_humidity;BME280_pressure;Samples;Min_cycle;Max_cycle;Signal;HPM_P1;HPM_P2
2024/03/15 00:01:13;;;;;;;28.00;16.70;;;;;;;3.77;85.96;100603.39;87583;273;136068;-73
2024/03/15 00:03:15;;;;;;;23.10;16.80;;;;;;;3.74;86.04;100601.00;87578;278;22582;-72
2024/03/15 00:05:19;;;;;;;23.30;16.70;;;;;;;3.73;86.38;100595.52;87350;270;135944;-73
2024/03/15 00:07:21;;;;;;;27.70;17.40;;;;;;;3.72;86.54;100598.92;87178;274;24140;-73
2024/03/15 00:09:23;;;;;;;24.90;18.20;;;;;;;3.71;86.84;100599.89;87294;273;135896;-72
2024/03/15 00:11:25;;;;;;;23.00;16.70;;;;;;;3.73;87.24;100598.52;87536;273;22557;-72
2024/03/15 00:13:26;;;;;;;22.30;17.50;;;;;;;3.76;87.54;100597.71;87552;270;137809;-75
2024/03/15 00:15:29;;;;;;;26.90;17.30;;;;;;;3.78;87.49;100596.56;87675;273;22565;-72
2024/03/15 00:17:31;;;;;;;20.20;16.00;;;;;;;3.82;87.30;100592.41;87581;276;137979;-74
2024/03/15 00:19:34;;;;;;;28.50;16.50;;;;;;;3.83;87.24;100592.58;87404;271;25108;-71
2024/03/15 00:21:36;;;;;;;23.50;17.50;;;;;;;3.84;87.04;100593.96;87252;272;137258;-74
2024/03/15 00:23:39;;;;;;;26.40;18.30;;;;;;;3.80;87.06;100590.27;87720;264;25076;-73
2024/03/15 00:25:41;;;;;;;24.50;18.00;;;;;;;3.71;87.42;100592.10;87468;268;137366;-72
2024/03/15 00:27:43;;;;;;;22.00;17.70;;;;;;;3.62;87.93;100589.26;87593;260;25133;-73
2024/03/15 00:29:45;;;;;;;22.80;16.70;;;;;;;3.54;88.59;100586.41;87233;274;137703;-71
2024/03/15 00:31:47;;;;;;;22.80;17.60;;;;;;;3.47;88.85;100581.07;87321;264;22568;-72
2024/03/15 00:33:49;;;;;;;24.30;16.10;;;;;;;3.41;89.28;100578.60;87477;277;137122;-72
2024/03/15 00:35:51;;;;;;;24.20;17.20;;;;;;;3.38;89.48;100581.15;87787;264;22565;-71
2024/03/15 00:37:52;;;;;;;25.50;17.20;;;;;;;3.37;89.50;100580.54;87415;266;138437;-74
2024/03/15 00:39:55;;;;;;;24.80;16.80;;;;;;;3.37;89.65;100584.39;87690;268;22597;-71
2024/03/15 00:41:56;;;;;;;19.80;15.40;;;;;;;3.38;89.93;100580.69;87509;275;136827;-71
2024/03/15 00:43:58;;;;;;;27.00;16.90;;;;;;;3.38;90.43;100579.98;87709;276;25306;-82
2024/03/15 00:46:00;;;;;;;25.40;18.50;;;;;;;3.37;90.50;100583.23;87521;264;136556;-73
2024/03/15 00:48:03;;;;;;;30.60;18.50;;;;;;;3.36;90.67;100579.45;87587;268;23017;-73
2024/03/15 00:50:06;;;;;;;26.70;17.10;;;;;;;3.33;90.81;100578.61;87806;271;22506;-74
2024/03/15 00:52:07;;;;;;;24.20;16.80;;;;;;;3.32;90.87;100574.14;87591;272;137311;-70
2024/03/15 00:54:09;;;;;;;22.60;17.10;;;;;;;3.34;90.96;100575.06;87778;274;24278;-72
2024/03/15 00:56:12;;;;;;;25.00;16.90;;;;;;;3.32;91.10;100573.82;87520;273;136307;-79
2024/03/15 00:58:14;;;;;;;24.90;18.20;;;;;;;3.29;91.41;100578.20;87713;273;22573;-71
2024/03/15 01:00:16;;;;;;;34.10;20.70;;;;;;;3.28;91.53;100575.74;87161;268;136285;-71
2024/03/15 01:02:18;;;;;;;33.70;19.80;;;;;;;3.28;91.74;100577.33;87310;269;22635;-69
2024/03/15 01:04:20;;;;;;;29.10;20.90;;;;;;;3.28;92.09;100571.00;87593;268;136935;-71
2024/03/15 01:06:23;;;;;;;28.80;20.90;;;;;;;3.27;92.08;100571.59;87559;275;22585;-74
2024/03/15 01:08:25;;;;;;;33.80;22.40;;;;;;;3.28;92.28;100570.42;87765;268;137365;-71
2024/03/15 01:10:31;;;;;;;33.20;23.00;;;;;;;3.29;92.42;100575.96;87408;272;24174;-72
2024/03/15 01:12:34;;;;;;;33.70;22.30;;;;;;;3.31;92.48;100578.05;87212;271;136895;-72
2024/03/15 01:14:36;;;;;;;31.20;22.30;;;;;;;3.39;92.58;100576.01;87310;273;22561;-72
2024/03/15 01:16:37;;;;;;;32.10;21.30;;;;;;;3.45;92.42;100574.89;87519;276;136993;-72
2024/03/15 01:18:40;;;;;;;30.70;20.90;;;;;;;3.52;92.35;100574.13;87682;273;23255;-72
2024/03/15 01:20:42;;;;;;;30.60;20.70;;;;;;;3.58;92.39;100575.32;87552;268;136758;-73
2024/03/15 01:22:46;;;;;;;27.90;20.10;;;;;;;3.63;92.20;100569.66;87336;273;22563;-72
2024/03/15 01:24:48;;;;;;;30.90;21.00;;;;;;;3.65;92.15;100574.02;87302;268;137468;-73
2024/03/15 01:26:50;;;;;;;31.00;21.00;;;;;;;3.64;92.32;100577.10;87386;279;22555;-70
2024/03/15 01:28:52;;;;;;;29.60;21.60;;;;;;;3.62;92.49;100582.90;87246;278;135939;-74
2024/03/15 01:30:54;;;;;;;31.50;22.90;;;;;;;3.61;92.86;100582.96;87597;260;22577;-71
2024/03/15 01:32:56;;;;;;;31.10;22.10;;;;;;;3.62;93.16;100585.17;87141;268;137727;-72
2024/03/15 01:34:58;;;;;;;35.50;22.50;;;;;;;3.65;93.12;100584.36;87424;269;24358;-74
2024/03/15 01:37:00;;;;;;;33.80;23.80;;;;;;;3.68;92.93;100584.13;87478;269;137319;-72
2024/03/15 01:39:02;;;;;;;29.20;21.50;;;;;;;3.69;93.04;100586.46;87590;273;25238;-72
2024/03/15 01:41:05;;;;;;;31.30;22.30;;;;;;;3.73;93.16;100582.30;87079;270;136265;-72
2024/03/15 01:44:10;;;;;;;29.90;21.80;;;;;;;3.67;93.72;100582.48;85117;304;602957;-71
2024/03/15 01:46:13;;;;;;;30.30;22.40;;;;;;;3.66;94.12;100583.80;86341;287;22568;-73
2024/03/15 01:48:17;;;;;;;38.70;24.40;;;;;;;3.68;94.34;100585.14;86211;286;137852;-72
2024/03/15 01:50:22;;;;;;;33.30;23.10;;;;;;;3.72;94.31;100589.60;86336;287;22765;-74
2024/03/15 01:52:25;;;;;;;;;;;;;;;3.76;94.38;100592.73;86169;287;137373;-72
2024/03/15 01:54:28;;;;;;;31.00;20.60;;;;;;;3.81;94.54;100589.70;86194;291;24042;-72
2024/03/15 01:56:31;;;;;;;37.70;25.10;;;;;;;3.83;94.52;100589.43;86270;287;136365;-71
2024/03/15 01:58:33;;;;;;;36.40;23.80;;;;;;;3.86;94.55;100593.23;85835;290;597868;-73
2024/03/15 02:00:37;;;;;;;37.10;22.90;;;;;;;3.88;94.79;100592.73;87058;275;136427;-72
2024/03/15 02:02:40;;;;;;;37.40;24.90;;;;;;;3.87;95.09;100594.52;87247;282;21863;-78
2024/03/15 02:04:53;;;;;;;33.80;24.90;;;;;;;3.89;95.28;100592.84;86846;271;136061;-70
2024/03/15 02:06:56;;;;;;;33.80;24.60;;;;;;;3.93;95.30;100596.36;86879;275;22562;-71
2024/03/15 02:08:58;;;;;;;32.60;22.80;;;;;;;3.94;95.20;100598.49;86819;272;135862;-70
2024/03/15 02:11:00;;;;;;;33.50;23.90;;;;;;;3.95;95.54;100595.94;87036;270;24254;-71
2024/03/15 02:13:02;;;;;;;32.50;24.40;;;;;;;3.94;95.60;100590.27;86872;274;135991;-68
2024/03/15 02:15:07;;;;;;;32.90;22.60;;;;;;;3.92;96.09;100594.30;86671;284;22572;-71
2024/03/15 02:17:09;;;;;;;34.10;25.00;;;;;;;3.91;96.43;100594.69;86931;276;136122;-72
2024/03/15 02:19:10;;;;;;;34.00;23.40;;;;;;;3.91;96.56;100590.69;86966;275;25775;-70
2024/03/15 02:21:12;;;;;;;31.80;23.20;;;;;;;3.91;97.07;100601.92;86824;275;136761;-69
2024/03/15 02:23:15;;;;;;;29.10;22.80;;;;;;;3.92;97.67;100610.67;86920;275;22559;-71
2024/03/15 02:25:18;;;;;;;37.60;24.80;;;;;;;3.92;97.83;100611.87;86802;277;138039;-70
2024/03/15 02:27:20;;;;;;;31.40;23.40;;;;;;;3.92;98.41;100608.33;86886;282;24004;-71
2024/03/15 02:29:25;;;;;;;26.90;21.50;;;;;;;3.93;99.27;100607.77;86854;275;136705;-70
2024/03/15 02:31:27;;;;;;;29.70;22.30;;;;;;;3.90;99.89;100616.25;86943;275;24187;-70
2024/03/15 02:33:29;;;;;;;31.80;22.70;;;;;;;3.88;100.00;100612.89;86771;276;136646;-74
2024/03/15 02:35:32;;;;;;;29.00;22.90;;;;;;;3.88;100.00;100614.17;86957;283;22635;-71
2024/03/15 02:37:36;;;;;;;29.80;23.70;;;;;;;3.88;100.00;100615.36;87221;275;137116;-72
2024/03/15 02:39:38;;;;;;;26.90;21.10;;;;;;;3.91;100.00;100615.61;87277;272;22546;-72
2024/03/15 02:41:40;;;;;;;28.80;22.80;;;;;;;3.95;100.00;100616.67;87222;275;136258;-73
2024/03/15 02:43:42;;;;;;;33.60;23.00;;;;;;;3.95;100.00;100613.38;87251;279;25272;-72
2024/03/15 02:45:44;;;;;;;35.00;23.80;;;;;;;3.95;100.00;100613.77;87124;272;137224;-72
2024/03/15 02:47:46;;;;;;;32.80;24.20;;;;;;;3.94;100.00;100615.89;87272;275;22600;-71
2024/03/15 02:49:49;;;;;;;30.50;22.50;;;;;;;3.93;100.00;100614.59;87102;277;135960;-73
2024/03/15 02:51:51;;;;;;;31.40;23.50;;;;;;;3.91;100.00;100616.67;87299;275;24017;-71
2024/03/15 02:53:54;;;;;;;37.30;24.00;;;;;;;3.91;100.00;100621.23;87123;273;136426;-72
2024/03/15 02:55:56;;;;;;;33.90;24.00;;;;;;;3.92;100.00;100619.98;87286;273;22586;-71
2024/03/15 02:57:58;;;;;;;28.50;23.50;;;;;;;3.92;100.00;100619.47;87007;284;136515;-72
2024/03/15 03:00:00;;;;;;;28.90;22.50;;;;;;;3.94;100.00;100621.16;87211;280;24043;-73
2024/03/15 03:02:02;;;;;;;30.50;22.30;;;;;;;3.95;100.00;100615.28;86908;274;136760;-73
2024/03/15 03:04:05;;;;;;;30.90;22.40;;;;;;;3.96;100.00;100616.77;86749;272;136922;-71
2024/03/15 03:06:09;;;;;;;33.30;23.80;;;;;;;3.97;100.00;100622.97;87297;274;24150;-73
2024/03/15 03:08:11;;;;;;;31.90;22.50;;;;;;;4.01;100.00;100617.54;87175;274;137121;-70
2024/03/15 03:10:13;;;;;;;35.10;22.50;;;;;;;4.02;100.00;100616.96;86924;275;26094;-72
2024/03/15 03:12:15;;;;;;;26.60;20.60;;;;;;;4.02;100.00;100617.13;86853;272;137847;-72
2024/03/15 03:14:17;;;;;;;30.90;21.70;;;;;;;4.02;100.00;100620.06;87045;282;22667;-74
2024/03/15 03:16:21;;;;;;;31.20;20.60;;;;;;;4.06;100.00;100617.13;86926;275;137189;-72
2024/03/15 03:18:22;;;;;;;33.40;23.20;;;;;;;4.09;100.00;100620.04;87167;283;22571;-73
2024/03/15 03:20:28;;;;;;;36.10;22.90;;;;;;;4.09;100.00;100617.17;86953;275;136746;-74
2024/03/15 03:22:30;;;;;;;28.90;20.20;;;;;;;4.10;100.00;100614.42;87142;274;22559;-72
2024/03/15 03:24:31;;;;;;;32.70;21.90;;;;;;;4.12;100.00;100618.15;86789;273;136227;-72
2024/03/15 03:26:34;;;;;;;30.10;23.00;;;;;;;4.12;100.00;100619.01;86754;279;22562;-72
2024/03/15 03:28:36;;;;;;;30.10;22.30;;;;;;;4.10;100.00;100620.39;87021;279;136174;-72
2024/03/15 03:30:38;;;;;;;29.10;22.80;;;;;;;4.08;100.00;100617.95;87010;274;22563;-72
2024/03/15 03:32:40;;;;;;;32.10;23.40;;;;;;;4.07;100.00;100615.27;86883;274;135965;-69
2024/03/15 03:34:42;;;;;;;30.80;23.40;;;;;;;4.07;100.00;100619.09;87240;273;24036;-71
2024/03/15 03:36:44;;;;;;;27.80;22.60;;;;;;;4.09;100.00;100619.10;87226;280;136567;-72
2024/03/15 03:38:45;;;;;;;28.00;22.10;;;;;;;4.10;100.00;100617.23;86978;282;22565;-72
2024/03/15 03:40:47;;;;;;;24.20;20.40;;;;;;;4.09;100.00;100615.92;87038;274;136936;-71
2024/03/15 03:42:49;;;;;;;33.90;22.30;;;;;;;4.07;100.00;100620.86;87185;281;24072;-71
2024/03/15 03:44:51;;;;;;;28.70;22.30;;;;;;;4.04;100.00;100623.06;87049;270;137985;-71
2024/03/15 03:46:53;;;;;;;29.20;22.30;;;;;;;4.04;100.00;100625.49;87042;273;22584;-71
2024/03/15 03:48:55;;;;;;;30.90;22.00;;;;;;;4.06;100.00;100626.41;87113;272;136896;-76
2024/03/15 03:50:57;;;;;;;28.40;22.20;;;;;;;4.08;100.00;100627.80;87142;281;25086;-71
2024/03/15 03:53:00;;;;;;;29.60;22.80;;;;;;;4.10;100.00;100629.23;87290;281;136826;-72
2024/03/15 03:55:05;;;;;;;32.20;22.10;;;;;;;4.09;100.00;100629.64;87206;273;22593;-71
2024/03/15 03:57:17;;;;;;;35.70;22.60;;;;;;;4.07;100.00;100634.96;87103;269;137109;-71
2024/03/15 03:59:20;;;;;;;30.40;23.00;;;;;;;4.07;100.00;100635.14;87274;277;25124;-72
2024/03/15 04:01:21;;;;;;;28.00;20.60;;;;;;;4.08;100.00;100633.45;87060;285;138213;-72
2024/03/15 04:03:23;;;;;;;29.00;21.70;;;;;;;4.09;100.00;100634.52;87267;281;25111;-69
2024/03/15 04:05:26;;;;;;;28.00;23.20;;;;;;;4.11;100.00;100640.23;87032;274;137273;-73
2024/03/15 04:07:29;;;;;;;29.30;22.20;;;;;;;4.12;100.00;100639.98;87082;281;23610;-72
2024/03/15 04:09:30;;;;;;;26.80;20.70;;;;;;;4.13;100.00;100646.79;86961;269;136592;-72
2024/03/15 04:11:33;;;;;;;32.40;21.60;;;;;;;4.15;100.00;100641.86;86669;275;24171;-73
2024/03/15 04:13:37;;;;;;;34.70;20.90;;;;;;;4.14;100.00;100641.22;86961;274;136816;-70
2024/03/15 04:15:46;;;;;;;26.40;21.80;;;;;;;4.13;100.00;100643.04;86993;270;22568;-72
2024/03/15 04:17:48;;;;;;;28.40;22.40;;;;;;;4.13;100.00;100638.90;87041;281;135988;-71
2024/03/15 04:19:50;;;;;;;28.20;23.70;;;;;;;4.11;100.00;100643.39;87127;273;24196;-71
2024/03/15 04:21:52;;;;;;;31.40;23.50;;;;;;;4.11;100.00;100647.64;87015;277;136141;-73
2024/03/15 04:23:55;;;;;;;27.70;22.40;;;;;;;4.10;100.00;100648.41;87198;281;22740;-71
2024/03/15 04:25:57;;;;;;;25.10;19.90;;;;;;;4.06;100.00;100650.86;87054;274;135880;-72
2024/03/15 04:27:59;;;;;;;27.60;22.80;;;;;;;4.04;100.00;100649.46;87230;281;25127;-73
2024/03/15 04:30:14;;;;;;;29.30;21.80;;;;;;;4.02;100.00;100645.08;86937;274;136680;-74
2024/03/15 04:32:19;;;;;;;28.60;22.60;;;;;;;4.01;100.00;100647.11;87115;274;138110;-71
2024/03/15 04:34:21;;;;;;;27.70;21.60;;;;;;;3.99;100.00;100643.21;87251;277;22885;-71
2024/03/15 04:36:27;;;;;;;28.90;24.40;;;;;;;3.96;100.00;100646.27;86973;274;137968;-71
2024/03/15 04:38:28;;;;;;;27.30;22.00;;;;;;;3.96;100.00;100648.94;87313;274;24032;-71
2024/03/15 04:40:30;;;;;;;28.50;22.30;;;;;;;3.98;100.00;100652.95;87021;269;136782;-71
2024/03/15 04:42:32;;;;;;;26.90;22.10;;;;;;;4.01;100.00;100654.30;87163;281;24127;-71
2024/03/15 04:44:37;;;;;;;29.30;23.10;;;;;;;4.03;100.00;100652.71;86965;281;138224;-72
2024/03/15 04:46:40;;;;;;;25.40;21.50;;;;;;;4.06;100.00;100654.00;86968;271;22605;-72
2024/03/15 04:48:43;;;;;;;27.10;21.70;;;;;;;4.08;100.00;100650.80;86832;281;136977;-72
2024/03/15 04:50:45;;;;;;;29.90;22.80;;;;;;;4.10;100.00;100654.70;86980;273;22581;-72
2024/03/15 04:52:48;;;;;;;26.10;22.00;;;;;;;4.10;100.00;100651.02;87167;280;138390;-71
2024/03/15 04:54:50;;;;;;;28.40;23.10;;;;;;;4.13;100.00;100646.76;87235;270;24180;-73
2024/03/15 04:56:53;;;;;;;30.80;20.40;;;;;;;4.15;100.00;100645.36;87070;269;136924;-68
2024/03/15 04:58:56;;;;;;;26.30;21.30;;;;;;;4.15;100.00;100649.55;87463;265;25319;-71
2024/03/15 05:00:58;;;;;;;36.70;24.10;;;;;;;4.09;100.00;100648.00;87080;282;136782;-72
2024/03/15 05:03:00;;;;;;;26.50;21.60;;;;;;;4.03;100.00;100645.70;87162;269;22591;-72
2024/03/15 05:05:07;;;;;;;28.70;21.30;;;;;;;4.01;100.00;100646.05;87038;278;137477;-73
2024/03/15 05:07:09;;;;;;;29.20;23.00;;;;;;;4.01;100.00;100648.17;87009;274;24039;-72
2024/03/15 05:09:11;;;;;;;29.30;21.90;;;;;;;4.01;100.00;100648.15;86981;271;137624;-71
2024/03/15 05:11:15;;;;;;;30.60;22.70;;;;;;;4.02;100.00;100655.67;87138;278;25105;-71
2024/03/15 05:13:17;;;;;;;27.80;20.80;;;;;;;4.04;100.00;100660.39;87182;269;137220;-72
2024/03/15 05:15:20;;;;;;;24.50;20.80;;;;;;;4.08;100.00;100665.83;87060;280;22619;-71
2024/03/15 05:17:22;;;;;;;25.10;22.40;;;;;;;4.11;100.00;100674.33;86940;278;136895;-69
2024/03/15 05:19:24;;;;;;;32.60;23.10;;;;;;;4.15;100.00;100681.55;87026;277;22567;-69
2024/03/15 05:21:36;;;;;;;26.00;21.70;;;;;;;4.20;100.00;100683.04;87045;273;136998;-71
2024/03/15 05:23:38;;;;;;;23.50;20.80;;;;;;;4.24;100.00;100682.31;87126;273;24000;-71
2024/03/15 05:25:41;;;;;;;27.20;22.30;;;;;;;4.24;100.00;100684.58;87088;274;136491;-72
2024/03/15 05:27:43;;;;;;;25.70;21.40;;;;;;;4.22;100.00;100688.33;87848;268;23274;-73
2024/03/15 05:29:45;;;;;;;25.30;22.00;;;;;;;4.17;100.00;100689.85;87809;280;137966;-73
2024/03/15 05:31:47;;;;;;;25.00;22.00;;;;;;;4.11;100.00;100689.83;88520;274;25149;-71
2024/03/15 05:33:50;;;;;;;26.70;23.90;;;;;;;4.08;100.00;100689.20;88687;277;136325;-72
2024/03/15 05:35:53;;;;;;;27.60;22.60;;;;;;;4.08;100.00;100692.32;88974;270;23150;-74
2024/03/15 05:37:55;;;;;;;27.00;22.00;;;;;;;4.12;100.00;100694.82;87652;281;137258;-72
2024/03/15 05:39:57;;;;;;;29.70;23.00;;;;;;;4.17;100.00;100699.16;87129;274;24164;-71
2024/03/15 05:41:59;;;;;;;30.40;22.60;;;;;;;4.21;100.00;100701.23;86840;282;136635;-72
2024/03/15 05:44:01;;;;;;;32.60;25.00;;;;;;;4.24;100.00;100702.33;87098;274;24173;-71
2024/03/15 05:46:03;;;;;;;32.50;22.60;;;;;;;4.28;100.00;100706.22;87727;273;22542;-73
2024/03/15 05:48:05;;;;;;;27.90;22.60;;;;;;;4.32;100.00;100703.94;87062;280;138505;-72
2024/03/15 05:50:08;;;;;;;27.80;21.90;;;;;;;4.38;100.00;100702.02;87032;270;22562;-73
2024/03/15 05:52:10;;;;;;;26.70;23.40;;;;;;;4.41;100.00;100704.14;86863;274;137524;-70
2024/03/15 05:54:12;;;;;;;28.30;22.80;;;;;;;4.43;100.00;100711.39;87652;277;25164;-73
2024/03/15 05:56:15;;;;;;;26.60;22.70;;;;;;;4.43;100.00;100710.70;87205;282;138507;-74
2024/03/15 05:58:16;;;;;;;30.50;24.40;;;;;;;4.45;100.00;100710.84;86887;283;24030;-73
2024/03/15 06:00:21;;;;;;;30.00;24.70;;;;;;;4.47;100.00;100710.99;87084;271;136940;-73
2024/03/15 06:02:23;;;;;;;34.80;25.40;;;;;;;4.49;100.00;100710.69;87114;273;24001;-71
2024/03/15 06:04:25;;;;;;;32.80;24.90;;;;;;;4.47;100.00;100709.22;86918;273;136503;-70
2024/03/15 06:06:27;;;;;;;33.60;24.60;;;;;;;4.46;100.00;100707.64;88122;269;22792;-73
2024/03/15 06:08:30;;;;;;;32.50;25.30;;;;;;;4.44;100.00;100710.92;86884;280;137569;-72
2024/03/15 06:10:32;;;;;;;34.70;25.10;;;;;;;4.41;100.00;100708.02;87474;269;22569;-74
2024/03/15 06:12:34;;;;;;;34.70;25.10;;;;;;;4.39;100.00;100712.46;86962;273;136353;-76
2024/03/15 06:14:36;;;;;;;32.60;24.20;;;;;;;4.38;100.00;100711.70;87081;274;22574;-75
2024/03/15 06:16:38;;;;;;;36.70;26.20;;;;;;;4.40;100.00;100707.64;87229;268;136944;-75
2024/03/15 06:18:41;;;;;;;32.30;24.70;;;;;;;4.41;100.00;100705.25;87507;272;26470;-75
2024/03/15 06:20:44;;;;;;;31.20;24.60;;;;;;;4.42;100.00;100704.83;87325;277;138007;-75
2024/03/15 06:22:46;;;;;;;33.50;27.00;;;;;;;4.43;100.00;100700.46;87042;270;22955;-75
2024/03/15 06:24:49;;;;;;;32.10;23.80;;;;;;;4.43;100.00;100702.97;87042;271;139136;-75
2024/03/15 06:26:53;;;;;;;33.00;26.40;;;;;;;4.45;100.00;100704.68;87200;267;22563;-76
2024/03/15 06:28:59;;;;;;;30.10;24.80;;;;;;;4.47;100.00;100703.30;87206;271;137162;-77
2024/03/15 06:31:02;;;;;;;30.20;25.20;;;;;;;4.48;100.00;100705.50;87359;267;25875;-78
2024/03/15 06:33:04;;;;;;;34.20;27.30;;;;;;;4.50;100.00;100700.55;87127;278;137077;-75
2024/03/15 06:35:49;;;;;;;38.80;26.40;;;;;;;4.54;100.00;100699.88;87312;275;25095;-76
2024/03/15 06:37:31;;;;;;;35.00;26.60;;;;;;;4.59;100.00;100703.48;87292;275;137146;-79
2024/03/15 06:41:40;;;;;;;29.90;24.80;;;;;;;4.69;100.00;100706.94;87710;269;138294;-74
2024/03/15 06:43:45;;;;;;;27.50;22.60;;;;;;;4.72;100.00;100712.81;87492;269;23085;-77
2024/03/15 06:48:02;;;;;;;29.80;23.80;;;;;;;4.78;100.00;100711.75;87651;269;25101;-76
2024/03/15 06:52:34;;;;;;;33.10;26.50;;;;;;;4.80;100.00;100719.65;87057;267;136661;-78
2024/03/15 06:54:36;;;;;;;31.80;26.20;;;;;;;4.79;100.00;100720.09;87235;276;26918;-74
2024/03/15 06:56:39;;;;;;;38.40;27.50;;;;;;;4.79;100.00;100715.37;87025;267;136394;-75
2024/03/15 06:58:43;;;;;;;33.70;25.70;;;;;;;4.78;100.00;100712.91;87581;271;26853;-74
2024/03/15 07:00:48;;;;;;;35.80;26.40;;;;;;;4.80;100.00;100711.16;87082;275;138054;-76
2024/03/15 07:02:50;;;;;;;33.20;26.30;;;;;;;4.82;100.00;100713.96;87492;270;25296;-74
2024/03/15 07:04:52;;;;;;;33.00;26.80;;;;;;;4.83;100.00;100712.46;87385;270;138316;-72
2024/03/15 07:06:54;;;;;;;37.40;26.90;;;;;;;4.84;100.00;100715.40;87184;262;24833;-71
2024/03/15 07:08:57;;;;;;;33.50;24.90;;;;;;;4.79;100.00;100714.80;87162;278;137171;-73
2024/03/15 07:10:58;;;;;;;36.80;26.60;;;;;;;4.73;100.00;100717.45;87432;274;23766;-73
2024/03/15 07:13:03;;;;;;;30.60;26.00;;;;;;;4.71;100.00;100715.17;87030;270;136315;-72
2024/03/15 07:15:08;;;;;;;34.60;27.40;;;;;;;4.72;100.00;100716.52;87243;271;22557;-79
2024/03/15 07:17:10;;;;;;;38.40;27.00;;;;;;;4.73;100.00;100716.26;87982;267;136828;-72
2024/03/15 07:19:13;;;;;;;33.20;26.00;;;;;;;4.77;100.00;100719.77;87376;278;22738;-73
2024/03/15 07:21:16;;;;;;;33.40;26.60;;;;;;;4.82;100.00;100717.36;87157;271;137087;-73
2024/03/15 07:23:21;;;;;;;34.30;25.40;;;;;;;4.89;100.00;100719.48;87155;269;22657;-74
2024/03/15 07:25:24;;;;;;;34.40;25.80;;;;;;;4.98;100.00;100718.55;87449;266;137084;-71
2024/03/15 07:27:26;;;;;;;32.10;24.80;;;;;;;5.09;100.00;100717.00;87560;266;25239;-72
2024/03/15 07:29:28;;;;;;;34.80;26.60;;;;;;;5.18;100.00;100711.55;87537;278;137482;-70
2024/03/15 07:31:30;;;;;;;32.60;24.70;;;;;;;5.24;100.00;100714.14;87254;270;22569;-70
2024/03/15 07:33:34;;;;;;;32.50;25.60;;;;;;;5.32;100.00;100715.39;87023;271;137671;-75
2024/03/15 07:35:36;;;;;;;34.10;26.90;;;;;;;5.38;100.00;100714.78;87564;278;26189;-74
2024/03/15 07:37:39;;;;;;;37.50;26.30;;;;;;;5.45;100.00;100716.98;87048;271;136457;-72
2024/03/15 07:39:41;;;;;;;34.70;26.50;;;;;;;5.54;100.00;100717.27;87447;267;22803;-71
2024/03/15 07:41:43;;;;;;;33.90;26.80;;;;;;;5.67;100.00;100716.63;87169;278;136603;-73
2024/03/15 07:43:46;;;;;;;36.00;27.50;;;;;;;5.78;100.00;100715.56;87253;279;25290;-73
2024/03/15 07:45:48;;;;;;;34.50;26.70;;;;;;;5.91;100.00;100718.92;87196;271;137251;-72
2024/03/15 07:47:50;;;;;;;34.30;25.80;;;;;;;6.06;100.00;100718.91;87210;271;22696;-73
2024/03/15 07:49:53;;;;;;;33.00;26.40;;;;;;;6.22;100.00;100717.13;87270;267;137731;-75
2024/03/15 07:51:56;;;;;;;29.90;23.50;;;;;;;6.35;100.00;100718.21;87567;263;25191;-73
2024/03/15 07:53:58;;;;;;;33.00;24.60;;;;;;;6.39;100.00;100715.33;87242;266;138413;-72
2024/03/15 07:56:03;;;;;;;29.20;25.30;;;;;;;6.37;100.00;100714.75;87270;266;25186;-71
2024/03/15 07:58:06;;;;;;;34.60;27.40;;;;;;;6.36;100.00;100712.73;87341;269;22560;-78
2024/03/15 08:00:09;;;;;;;36.40;29.60;;;;;;;6.37;100.00;100712.10;87237;270;136762;-76
2024/03/15 08:02:11;;;;;;;32.80;27.00;;;;;;;6.37;100.00;100716.55;87459;269;22584;-71
2024/03/15 08:04:14;;;;;;;32.70;28.20;;;;;;;6.36;100.00;100712.82;87688;274;136880;-75
2024/03/15 08:06:16;;;;;;;36.80;27.90;;;;;;;6.34;100.00;100713.00;87359;276;22754;-70
2024/03/15 08:08:18;;;;;;;32.70;27.30;;;;;;;6.31;100.00;100710.14;87109;268;137728;-74
2024/03/15 08:10:23;;;;;;;36.50;28.10;;;;;;;6.27;100.00;100707.02;87332;266;24115;-73
2024/03/15 08:12:26;;;;;;;33.30;28.00;;;;;;;6.26;100.00;100706.39;87336;266;137079;-72
2024/03/15 08:14:31;;;;;;;35.60;27.10;;;;;;;6.26;100.00;100707.45;87442;266;25252;-71
2024/03/15 08:16:35;;;;;;;40.30;28.20;;;;;;;6.28;100.00;100708.11;87411;261;137126;-71
2024/03/15 08:18:37;;;;;;;30.30;25.70;;;;;;;6.31;100.00;100700.23;87124;271;22613;-71
2024/03/15 08:20:39;;;;;;;35.70;27.80;;;;;;;6.35;100.00;100700.15;87104;272;137294;-72
2024/03/15 08:22:42;;;;;;;32.20;27.10;;;;;;;6.39;100.00;100701.36;87295;266;22631;-73
2024/03/15 08:24:44;;;;;;;32.10;27.40;;;;;;;6.42;100.00;100699.95;87214;269;138754;-73
2024/03/15 08:26:47;;;;;;;36.10;27.00;;;;;;;6.45;100.00;100697.60;87341;270;24260;-71
2024/03/15 08:28:50;;;;;;;35.20;27.90;;;;;;;6.46;100.00;100698.80;87278;276;135993;-74
2024/03/15 08:30:52;;;;;;;38.60;29.00;;;;;;;6.47;100.00;100700.63;87383;266;26195;-73
2024/03/15 08:32:54;;;;;;;38.60;28.90;;;;;;;6.50;100.00;100703.05;87171;270;136001;-74
2024/03/15 08:34:57;;;;;;;38.90;29.20;;;;;;;6.54;100.00;100706.39;87377;269;22555;-75
2024/03/15 08:36:59;;;;;;;37.10;29.20;;;;;;;6.55;100.00;100710.38;87338;270;136332;-74
2024/03/15 08:39:01;;;;;;;35.00;28.10;;;;;;;6.55;100.00;100712.29;87175;271;22584;-72
2024/03/15 08:41:03;;;;;;;35.40;27.80;;;;;;;6.52;100.00;100710.91;87316;269;136577;-73
2024/03/15 08:43:10;;;;;;;38.10;28.80;;;;;;;6.48;100.00;100712.10;87264;277;25195;-74
2024/03/15 08:45:14;;;;;;;34.60;27.90;;;;;;;6.50;100.00;100709.27;87365;273;135869;-74
2024/03/15 08:47:18;;;;;;;33.80;26.80;;;;;;;6.52;100.00;100713.20;87448;266;22637;-73
2024/03/15 08:49:20;;;;;;;33.60;27.60;;;;;;;6.52;100.00;100713.64;87319;265;138133;-74
2024/03/15 08:51:23;;;;;;;33.30;25.80;;;;;;;6.49;100.00;100712.21;87427;267;25082;-78
2024/03/15 08:53:25;;;;;;;31.60;24.90;;;;;;;6.44;100.00;100710.94;87184;269;137309;-72
2024/03/15 08:55:27;;;;;;;35.70;27.20;;;;;;;6.37;100.00;100707.74;87267;270;22562;-75
2024/03/15 08:57:30;;;;;;;33.30;25.30;;;;;;;6.33;100.00;100707.98;87205;277;137034;-75
2024/03/15 08:59:33;;;;;;;34.40;27.40;;;;;;;6.32;100.00;100712.09;87482;269;25111;-78
2024/03/15 09:01:35;;;;;;;31.50;27.90;;;;;;;6.33;100.00;100714.87;87193;269;137786;-74
2024/03/15 09:03:39;;;;;;;34.80;28.50;;;;;;;6.31;100.00;100712.91;87381;270;25111;-75
2024/03/15 09:05:43;;;;;;;;;;;;;;;6.32;100.00;100711.23;87289;269;136387;-74
2024/03/15 09:07:45;;;;;;;35.40;27.90;;;;;;;6.32;100.00;100711.56;87243;279;22575;-75
2024/03/15 09:09:48;;;;;;;34.20;28.50;;;;;;;6.34;100.00;100705.39;87214;274;136684;-75
2024/03/15 09:11:51;;;;;;;36.00;29.70;;;;;;;6.40;100.00;100708.44;87551;273;24875;-75
2024/03/15 09:13:56;;;;;;;37.30;27.00;;;;;;;6.50;100.00;100706.29;87978;270;136488;-74
2024/03/15 09:15:59;;;;;;;33.60;27.60;;;;;;;6.56;100.00;100698.41;87281;278;25108;-71
2024/03/15 09:18:02;;;;;;;36.10;28.30;;;;;;;6.58;100.00;100695.56;87396;266;136733;-77
2024/03/15 09:20:51;;;;;;;32.80;27.20;;;;;;;6.60;100.00;100693.65;87398;271;137412;-72
2024/03/15 09:22:29;;;;;;;35.40;28.00;;;;;;;6.65;100.00;100695.92;87235;267;24126;-74
2024/03/15 09:24:31;;;;;;;33.80;26.70;;;;;;;6.74;100.00;100699.10;87497;278;137092;-75
2024/03/15 09:26:33;;;;;;;37.10;28.70;;;;;;;6.82;100.00;100693.58;87400;271;22562;-71
2024/03/15 09:28:43;;;;;;;35.70;27.50;;;;;;;6.82;100.00;100696.58;87096;279;137613;-74
2024/03/15 09:30:54;;;;;;;39.50;28.90;;;;;;;6.79;100.00;100699.87;87267;273;24011;-75
2024/03/15 09:33:11;;;;;;;37.10;29.90;;;;;;;6.77;100.00;100697.16;87208;263;136739;-72